Yazd, Iran
Current Conditions -  °F | °C
As of 9:00 AM on Tuesday 23 Dec 2014 (Local Time) from OIYY Reporting Station
Clear Clear  
Wind Chill: 37°   Ceiling: Unl
Heat Index: 43°   Visibility: 6mi
Dew Point: 32°   Wind: 12mph
Humidity: 66%   Direction: 140°SE
Pressure: 30.03"   Gusts: NA
Location:  31.92°N, 54.37°E
Report Text: OIYY 230500Z 14010KT CAVOK 06/00 Q1017
Loading
Personal Weather Stations






























Interactive Weather Map New forecast layout! Learn more

10-Day Weather Forecast

Advertisements
Track Severe Weather on mobile